createdAt,value
2019-05-20T00:02:03.137Z,16.63
2019-05-20T00:06:04.145Z,19.13
2019-05-20T00:10:06.305Z,17.70
2019-05-20T00:14:07.210Z,17.43
2019-05-20T00:18:08.106Z,18.30
2019-05-20T00:22:09.006Z,19.47
2019-05-20T00:26:09.933Z,22.33
2019-05-20T00:30:11.315Z,18.33
2019-05-20T00:34:12.247Z,22.60
2019-05-20T00:38:13.130Z,19.27
2019-05-20T00:42:14.013Z,22.73
2019-05-20T00:46:14.891Z,15.30
2019-05-20T00:50:15.974Z,16.53
2019-05-20T00:54:16.861Z,18.97
2019-05-20T00:58:17.945Z,17.37
2019-05-20T01:02:19.019Z,16.27
2019-05-20T01:06:19.971Z,28.43
2019-05-20T01:10:20.939Z,21.00
2019-05-20T01:14:21.845Z,30.53
2019-05-20T01:18:22.770Z,27.03
2019-05-20T01:22:23.683Z,22.23
2019-05-20T01:26:24.734Z,19.93
2019-05-20T01:30:25.743Z,17.53
2019-05-20T01:34:26.600Z,18.63
2019-05-20T01:38:27.499Z,18.27
2019-05-20T01:42:28.385Z,15.97
2019-05-20T01:46:29.337Z,15.40
2019-05-20T01:50:30.234Z,15.53
2019-05-20T01:54:31.233Z,12.30
2019-05-20T01:58:32.153Z,16.97
2019-05-20T02:02:33.165Z,14.77
2019-05-20T02:06:34.114Z,16.63
2019-05-20T02:10:35.094Z,17.80
2019-05-20T02:14:37.925Z,17.20
2019-05-20T02:18:38.905Z,17.17
2019-05-20T02:22:39.796Z,14.80
2019-05-20T02:26:40.748Z,14.27
2019-05-20T02:30:41.884Z,17.63
2019-05-20T02:34:42.987Z,17.30
2019-05-20T02:38:43.875Z,17.30
2019-05-20T02:42:44.746Z,16.70
2019-05-20T02:46:45.813Z,13.93
2019-05-20T02:50:46.793Z,14.20
2019-05-20T02:54:47.694Z,15.63
2019-05-20T02:58:48.580Z,14.90
2019-05-20T03:02:49.457Z,15.77
2019-05-20T03:06:50.339Z,20.93
2019-05-20T03:10:51.290Z,19.13
2019-05-20T03:14:52.256Z,22.00
2019-05-20T03:18:53.135Z,22.43
2019-05-20T03:22:54.039Z,16.50
2019-05-20T03:26:54.921Z,16.00
2019-05-20T03:30:55.814Z,15.90
2019-05-20T03:35:00.084Z,15.93
2019-05-20T03:38:59.754Z,19.63
2019-05-20T03:43:00.630Z,21.37
2019-05-20T03:47:01.666Z,22.53
2019-05-20T03:51:02.728Z,24.03
2019-05-20T03:55:05.388Z,29.13
2019-05-20T03:59:06.273Z,23.90
2019-05-20T04:03:07.206Z,25.70
2019-05-20T04:07:08.099Z,28.73
2019-05-20T04:11:08.983Z,26.20
2019-05-20T04:15:10.295Z,23.80
2019-05-20T04:19:14.478Z,31.50
2019-05-20T04:23:17.779Z,38.20
2019-05-20T04:27:18.866Z,33.10
2019-05-20T04:31:20.118Z,39.83
2019-05-20T04:35:23.197Z,45.67
2019-05-20T04:39:24.118Z,40.60
2019-05-20T04:43:25.310Z,39.30
2019-05-20T04:47:26.175Z,46.03
2019-05-20T04:51:27.015Z,57.33
2019-05-20T04:55:27.919Z,49.30
2019-05-20T04:59:28.861Z,52.30
2019-05-20T05:03:29.878Z,62.23
2019-05-20T05:07:30.734Z,55.47
2019-05-20T05:11:31.636Z,54.90
2019-05-20T05:15:32.739Z,60.57
2019-05-20T05:19:33.833Z,69.70
2019-05-20T05:23:34.933Z,60.40
2019-05-20T05:27:36.006Z,59.57
2019-05-20T05:31:37.036Z,64.63
2019-05-20T05:35:50.817Z,53.43
2019-05-20T05:39:40.718Z,58.43
2019-05-20T05:43:41.678Z,48.00
2019-05-20T05:47:42.560Z,46.97
2019-05-20T05:51:43.442Z,50.73
2019-05-20T05:55:44.347Z,53.17
2019-05-20T05:59:45.224Z,50.00
2019-05-20T06:03:46.090Z,52.80
2019-05-20T06:07:47.093Z,48.57
2019-05-20T06:11:47.972Z,46.67
2019-05-20T06:15:48.882Z,37.50
2019-05-20T06:19:49.726Z,38.50
2019-05-20T06:23:50.639Z,40.97
2019-05-20T06:27:51.605Z,43.77
2019-05-20T06:31:52.641Z,47.87
2019-05-20T06:35:53.835Z,47.60
2019-05-20T06:39:54.779Z,51.07
2019-05-20T06:43:55.650Z,51.13
2019-05-20T06:47:56.517Z,52.90
2019-05-20T06:51:57.623Z,52.80
2019-05-20T06:55:58.640Z,53.50
2019-05-20T06:59:59.611Z,57.37
2019-05-20T07:04:00.493Z,50.70
2019-05-20T07:08:01.647Z,49.53
2019-05-20T07:12:03.085Z,49.57
2019-05-20T07:16:04.169Z,50.47
2019-05-20T07:20:05.325Z,52.97
2019-05-20T07:24:06.352Z,55.00
2019-05-20T07:28:07.340Z,55.37
2019-05-20T07:32:08.249Z,55.17
2019-05-20T07:36:10.166Z,49.77
2019-05-20T07:40:13.576Z,49.73
2019-05-20T07:44:14.587Z,47.43
2019-05-20T07:48:15.746Z,48.70
2019-05-20T07:52:17.217Z,54.27
2019-05-20T07:56:21.891Z,47.27
2019-05-20T08:00:22.897Z,43.10
2019-05-20T08:04:23.911Z,44.37
2019-05-20T08:08:25.049Z,51.43
2019-05-20T08:12:45.811Z,47.73
2019-05-20T08:16:46.906Z,43.13
2019-05-20T08:20:47.936Z,39.10
2019-05-20T08:24:49.682Z,39.10
2019-05-20T08:28:50.912Z,40.93
2019-05-20T08:32:54.080Z,37.47
2019-05-20T08:36:55.157Z,39.23
2019-05-20T08:40:56.146Z,34.73
2019-05-20T08:44:57.185Z,33.13
2019-05-20T08:48:58.372Z,31.70
2019-05-20T08:52:59.332Z,31.17
2019-05-20T08:57:02.936Z,30.73
2019-05-20T09:01:04.026Z,27.20
2019-05-20T09:05:05.743Z,27.87
2019-05-20T09:09:06.861Z,26.07
2019-05-20T09:13:07.961Z,24.67
2019-05-20T09:17:08.985Z,25.17
2019-05-20T09:21:10.192Z,24.07
2019-05-20T09:25:11.908Z,24.63
2019-05-20T09:29:13.035Z,25.93
2019-05-20T09:33:14.766Z,25.50
2019-05-20T09:37:16.216Z,25.00
2019-05-20T09:41:17.147Z,26.03
2019-05-20T09:45:18.217Z,22.63
2019-05-20T09:49:19.140Z,24.20
2019-05-20T09:53:20.543Z,22.87
2019-05-20T09:57:21.649Z,21.70
2019-05-20T10:01:22.852Z,25.33
2019-05-20T10:05:23.936Z,22.63
2019-05-20T10:09:24.819Z,22.70
2019-05-20T10:13:25.802Z,22.03
2019-05-20T10:17:26.695Z,23.90
2019-05-20T10:21:27.702Z,22.97
2019-05-20T10:25:28.576Z,23.00
2019-05-20T10:29:29.478Z,21.43
2019-05-20T10:33:30.397Z,22.70
2019-05-20T10:37:31.280Z,22.93
2019-05-20T10:41:32.161Z,21.47
2019-05-20T10:45:33.271Z,22.97
2019-05-20T10:49:34.244Z,22.43
2019-05-20T10:53:35.150Z,23.13
2019-05-20T10:57:36.125Z,23.30
2019-05-20T11:01:37.021Z,23.20
2019-05-20T11:05:38.131Z,24.70
2019-05-20T11:09:39.111Z,27.00
2019-05-20T11:13:39.989Z,26.00
2019-05-20T11:17:40.922Z,26.07
2019-05-20T11:21:41.789Z,24.03
2019-05-20T11:25:42.704Z,23.23
2019-05-20T11:29:43.703Z,26.90
2019-05-20T11:33:44.593Z,27.23
2019-05-20T11:37:45.584Z,27.73
2019-05-20T11:41:53.377Z,27.50
2019-05-20T11:45:49.475Z,31.77
2019-05-20T11:49:50.462Z,33.47
2019-05-20T11:53:51.469Z,33.67
2019-05-20T11:57:52.736Z,34.47
2019-05-20T12:01:53.631Z,30.83
2019-05-20T12:05:54.741Z,33.40
2019-05-20T12:09:55.677Z,33.37
2019-05-20T12:13:56.544Z,37.17
2019-05-20T12:17:57.589Z,40.30
2019-05-20T12:21:58.481Z,42.00
2019-05-20T12:25:59.368Z,34.97
2019-05-20T12:30:00.308Z,42.03
2019-05-20T12:34:01.309Z,40.00
2019-05-20T12:38:02.183Z,36.67
2019-05-20T12:42:03.416Z,40.97
2019-05-20T12:46:04.448Z,37.83
2019-05-20T12:50:05.654Z,42.70
2019-05-20T12:54:09.103Z,37.53
2019-05-20T12:58:10.086Z,40.67
2019-05-20T13:02:11.136Z,39.83
2019-05-20T13:06:11.979Z,41.00
2019-05-20T13:10:27.747Z,41.60
2019-05-20T13:14:16.042Z,47.20
2019-05-20T13:18:17.124Z,43.77
2019-05-20T13:22:18.060Z,44.97
2019-05-20T13:26:19.238Z,43.73
2019-05-20T13:30:20.955Z,44.87
2019-05-20T13:34:21.826Z,46.83
2019-05-20T13:38:23.266Z,47.30
2019-05-20T13:42:24.176Z,47.70
2019-05-20T13:46:25.058Z,45.87
2019-05-20T13:50:26.051Z,51.27
2019-05-20T13:54:27.121Z,49.80
2019-05-20T13:58:28.046Z,51.70
2019-05-20T14:02:28.913Z,51.20
2019-05-20T14:06:29.896Z,55.60
2019-05-20T14:10:30.909Z,52.97
2019-05-20T14:14:31.837Z,51.07
2019-05-20T14:18:37.015Z,53.03
2019-05-20T14:22:38.148Z,54.50
2019-05-20T14:26:39.036Z,58.43
2019-05-20T14:30:40.032Z,55.83
2019-05-20T14:34:40.986Z,58.90
2019-05-20T14:38:42.389Z,56.57
2019-05-20T14:42:43.293Z,58.50
2019-05-20T14:46:44.186Z,57.63
2019-05-20T14:50:45.088Z,57.83
2019-05-20T14:54:47.893Z,53.73
2019-05-20T14:58:48.772Z,55.80
2019-05-20T15:02:49.716Z,53.77
2019-05-20T15:06:50.711Z,60.33
2019-05-20T15:10:51.616Z,56.87
2019-05-20T15:14:52.850Z,55.70
2019-05-20T15:18:53.850Z,54.70
2019-05-20T15:22:54.763Z,51.73
2019-05-20T15:26:55.888Z,53.00
2019-05-20T15:30:56.964Z,54.47
2019-05-20T15:34:57.896Z,55.93
2019-05-20T15:38:58.855Z,52.23
2019-05-20T15:42:59.869Z,58.10
2019-05-20T15:47:00.843Z,55.67
2019-05-20T15:51:01.834Z,53.17
2019-05-20T15:55:04.125Z,55.20
2019-05-20T15:59:06.965Z,57.70
2019-05-20T16:03:07.845Z,54.07
2019-05-20T16:07:08.854Z,58.43
2019-05-20T16:11:09.738Z,57.80
2019-05-20T16:15:11.002Z,58.87
2019-05-20T16:19:12.127Z,57.03
2019-05-20T16:23:13.482Z,59.63
2019-05-20T16:27:14.790Z,58.83
2019-05-20T16:31:15.813Z,56.33
2019-05-20T16:35:16.806Z,62.27
2019-05-20T16:39:17.744Z,59.63
2019-05-20T16:43:18.634Z,60.17
2019-05-20T16:47:19.730Z,56.17
2019-05-20T16:51:22.410Z,60.73
2019-05-20T16:55:23.701Z,57.20
2019-05-20T16:59:24.672Z,56.57
2019-05-20T17:03:25.589Z,56.60
2019-05-20T17:07:26.566Z,54.87
2019-05-20T17:11:27.489Z,59.23
2019-05-20T17:15:28.388Z,58.20
2019-05-20T17:19:29.302Z,59.57
2019-05-20T17:23:30.402Z,59.23
2019-05-20T17:27:31.387Z,55.80
2019-05-20T17:31:32.381Z,58.07
2019-05-20T17:35:33.400Z,58.47
2019-05-20T17:39:34.489Z,55.67
2019-05-20T17:43:40.425Z,54.43
2019-05-20T17:47:41.565Z,58.07
2019-05-20T17:51:43.369Z,57.03
2019-05-20T17:55:44.584Z,53.50
2019-05-20T17:59:45.454Z,53.47
2019-05-20T18:03:46.455Z,54.50
2019-05-20T18:07:47.931Z,52.90
2019-05-20T18:11:49.120Z,51.27
2019-05-20T18:15:50.088Z,51.83
2019-05-20T18:19:51.037Z,56.77
2019-05-20T18:23:51.979Z,58.97
2019-05-20T18:27:53.023Z,58.50
2019-05-20T18:31:54.075Z,58.47
2019-05-20T18:35:55.173Z,59.87
2019-05-20T18:39:56.059Z,56.70
2019-05-20T18:43:56.952Z,63.77
2019-05-20T18:47:57.953Z,65.57
2019-05-20T18:51:58.851Z,66.33
2019-05-20T18:55:59.942Z,70.40
2019-05-20T19:00:01.140Z,73.00
2019-05-20T19:04:02.107Z,79.97
2019-05-20T19:08:03.154Z,73.03
2019-05-20T19:12:04.111Z,76.50
2019-05-20T19:16:05.240Z,71.43
2019-05-20T19:20:06.378Z,76.77
2019-05-20T19:24:07.490Z,76.67
2019-05-20T19:28:08.368Z,80.17
2019-05-20T19:32:10.182Z,81.87
2019-05-20T19:36:11.216Z,83.53
2019-05-20T19:40:12.480Z,87.50
2019-05-20T19:44:13.622Z,83.50
2019-05-20T19:48:14.704Z,82.23
2019-05-20T19:52:15.771Z,80.07
2019-05-20T19:56:16.766Z,83.43
2019-05-20T20:00:17.822Z,86.40
2019-05-20T20:04:18.763Z,83.00
2019-05-20T20:08:19.643Z,87.97
2019-05-20T20:12:20.551Z,81.63
2019-05-20T20:16:21.540Z,89.77
2019-05-20T20:20:22.567Z,84.27
2019-05-20T20:24:23.672Z,82.00
2019-05-20T20:28:24.565Z,81.10
2019-05-20T20:32:37.473Z,88.33
2019-05-20T20:36:28.352Z,78.87
2019-05-20T20:40:29.205Z,77.53
2019-05-20T20:44:30.109Z,78.93
2019-05-20T20:48:31.123Z,78.60
2019-05-20T20:52:32.610Z,83.93
2019-05-20T20:56:34.330Z,93.13
2019-05-20T21:00:35.486Z,90.47
2019-05-20T21:04:37.057Z,93.17
2019-05-20T21:08:38.019Z,89.43
2019-05-20T21:12:38.951Z,96.70
2019-05-20T21:16:39.996Z,95.13
2019-05-20T21:20:40.875Z,91.33
2019-05-20T21:24:41.852Z,98.47
2019-05-20T21:28:42.723Z,102.23
2019-05-20T21:32:43.849Z,104.83
2019-05-20T21:36:47.906Z,103.30
2019-05-20T21:40:47.694Z,101.93
2019-05-20T21:44:48.656Z,103.23
2019-05-20T21:48:49.554Z,106.50
2019-05-20T21:52:50.429Z,109.00
2019-05-20T21:56:51.305Z,108.83
2019-05-20T22:00:54.115Z,108.77
2019-05-20T22:04:55.003Z,96.67
2019-05-20T22:08:55.905Z,97.10
2019-05-20T22:12:56.875Z,91.90
2019-05-20T22:16:57.970Z,90.63
2019-05-20T22:20:59.066Z,84.17
2019-05-20T22:24:59.982Z,87.50
2019-05-20T22:29:01.170Z,97.20
2019-05-20T22:33:02.158Z,102.90
2019-05-20T22:37:03.106Z,94.80
2019-05-20T22:41:03.996Z,88.80
2019-05-20T22:45:05.385Z,83.90
2019-05-20T22:49:06.324Z,84.33
2019-05-20T22:53:07.340Z,83.90
2019-05-20T22:57:08.220Z,85.57
2019-05-20T23:01:09.339Z,89.97
2019-05-20T23:05:10.831Z,87.83
2019-05-20T23:09:14.756Z,93.30
2019-05-20T23:13:14.709Z,97.67
2019-05-20T23:17:15.677Z,95.23
2019-05-20T23:21:16.663Z,91.73
2019-05-20T23:25:17.641Z,97.23
2019-05-20T23:29:18.538Z,88.77
2019-05-20T23:33:19.621Z,85.13
2019-05-20T23:37:20.580Z,81.40
2019-05-20T23:41:21.429Z,74.17
2019-05-20T23:45:22.519Z,75.00
2019-05-20T23:49:23.388Z,77.40
2019-05-20T23:53:24.265Z,72.10
2019-05-20T23:57:25.237Z,64.37
